createdAt,value
2016-11-13T00:01:00.559Z,64.37
2016-11-13T00:06:00.503Z,64.76
2016-11-13T00:11:00.449Z,64.85
2016-11-13T00:16:00.393Z,64.85
2016-11-13T00:21:00.345Z,64.85
2016-11-13T00:26:00.289Z,65.05
2016-11-13T00:31:00.235Z,65.2
2016-11-13T00:36:00.181Z,65.3
2016-11-13T00:41:00.129Z,65.2
2016-11-13T00:46:00.073Z,65.3
2016-11-13T00:51:00.021Z,65.3
2016-11-13T00:55:59.963Z,65.11
2016-11-13T01:00:59.607Z,65.3
2016-11-13T01:05:59.857Z,65.01
2016-11-13T01:10:59.497Z,65.49
2016-11-13T01:15:59.447Z,65.2
2016-11-13T01:20:59.689Z,65.3
2016-11-13T01:25:59.631Z,65.49
2016-11-13T01:30:59.580Z,65.3
2016-11-13T01:35:59.523Z,65.46
2016-11-13T01:40:59.466Z,65.4
2016-11-13T01:45:59.410Z,65.56
2016-11-13T01:50:59.358Z,65.65
2016-11-13T01:55:59.299Z,65.65
2016-11-13T02:00:59.242Z,65.36
2016-11-13T02:05:59.188Z,65.46
2016-11-13T02:10:59.132Z,65.65
2016-11-13T02:15:59.070Z,65.65
2016-11-13T02:20:59.011Z,65.65
2016-11-13T02:25:58.956Z,65.08
2016-11-13T02:30:58.898Z,65.27
2016-11-13T02:35:58.841Z,65.65
2016-11-13T02:40:58.785Z,65.52
2016-11-13T02:45:58.723Z,65.46
2016-11-13T02:50:58.705Z,65.36
2016-11-13T02:55:58.305Z,65.62
2016-11-13T03:00:58.549Z,65.43
2016-11-13T03:05:58.187Z,65.72
2016-11-13T03:10:58.436Z,65.52
2016-11-13T03:15:58.373Z,65.91
2016-11-13T03:20:58.315Z,66.19
2016-11-13T03:25:58.253Z,66.29
2016-11-13T03:30:58.195Z,66.19
2016-11-13T03:35:58.135Z,66.77
2016-11-13T03:40:58.110Z,66.58
2016-11-13T03:45:58.016Z,66.39
2016-11-13T03:50:57.650Z,66.67
2016-11-13T03:55:57.891Z,66.29
2016-11-13T04:00:57.528Z,66.19
2016-11-13T04:05:57.778Z,66.67
2016-11-13T04:10:57.713Z,66.96
2016-11-13T04:15:57.651Z,66.86
2016-11-13T04:20:57.591Z,66.96
2016-11-13T04:25:57.531Z,66.86
2016-11-13T04:30:57.471Z,66.67
2016-11-13T04:35:57.104Z,66.77
2016-11-13T04:40:57.385Z,66.86
2016-11-13T04:45:56.984Z,66.49
2016-11-13T04:50:56.922Z,66.58
2016-11-13T04:55:57.167Z,66.58
2016-11-13T05:00:57.112Z,66.86
2016-11-13T05:05:57.046Z,66.49
2016-11-13T05:10:56.992Z,66.77
2016-11-13T05:15:56.924Z,66.49
2016-11-13T05:20:56.868Z,66.96
2016-11-13T05:25:56.498Z,66.77
2016-11-13T05:30:56.741Z,66.39
2016-11-13T05:35:56.680Z,66.96
2016-11-13T05:40:56.626Z,66.39
2016-11-13T05:45:56.258Z,66.86
2016-11-13T05:50:56.500Z,67.02
2016-11-13T05:55:56.440Z,66.93
2016-11-13T06:00:56.077Z,67.02
2016-11-13T06:05:56.018Z,66.74
2016-11-13T06:10:55.954Z,66.64
2016-11-13T06:15:56.196Z,66.74
2016-11-13T06:20:56.134Z,66.55
2016-11-13T06:25:56.070Z,66.55
2016-11-13T06:30:56.012Z,66.74
2016-11-13T06:35:55.952Z,66.55
2016-11-13T06:40:55.884Z,66.74
2016-11-13T06:45:55.518Z,66.64
2016-11-13T06:50:55.759Z,66.45
2016-11-13T06:55:55.696Z,66.64
2016-11-13T07:00:55.632Z,66.61
2016-11-13T07:05:55.573Z,65.97
2016-11-13T07:10:55.510Z,66.35
2016-11-13T07:15:55.448Z,65.72
2016-11-13T07:20:55.075Z,65.33
2016-11-13T07:25:55.317Z,64.76
2016-11-13T07:30:54.961Z,64.5
2016-11-13T07:35:55.195Z,64.15
2016-11-13T07:40:54.835Z,63.76
2016-11-13T07:45:54.770Z,63.51
2016-11-13T07:50:55.010Z,63.7
2016-11-13T07:55:54.951Z,63.7
2016-11-13T08:00:54.892Z,64.09
2016-11-13T08:05:54.835Z,63.79
2016-11-13T08:10:54.769Z,63.79
2016-11-13T08:15:54.712Z,63.89
2016-11-13T08:20:54.387Z,63.89
2016-11-13T08:25:54.597Z,63.79
2016-11-13T08:30:54.537Z,63.79
2016-11-13T08:35:54.521Z,63.89
2016-11-13T08:40:54.429Z,63.99
2016-11-13T08:45:54.061Z,63.89
2016-11-13T08:50:54.311Z,63.99
2016-11-13T08:55:53.951Z,63.99
2016-11-13T09:00:53.885Z,63.99
2016-11-13T09:05:54.134Z,63.89
2016-11-13T09:10:54.085Z,63.6
2016-11-13T09:15:54.022Z,63.99
2016-11-13T09:20:53.966Z,63.06
2016-11-13T09:25:53.906Z,64.12
2016-11-13T09:30:53.851Z,65.56
2016-11-13T09:35:53.802Z,65.84
2016-11-13T09:40:53.450Z,66.52
2016-11-13T09:45:53.396Z,66.52
2016-11-13T09:50:53.330Z,66.91
2016-11-13T09:55:53.588Z,66.71
2016-11-13T10:00:53.220Z,67
2016-11-13T10:05:53.165Z,66.52
2016-11-13T10:10:53.120Z,66.71
2016-11-13T10:15:53.360Z,66.87
2016-11-13T10:20:53.302Z,66.58
2016-11-13T10:25:52.940Z,66.77
2016-11-13T10:30:53.184Z,66.58
2016-11-13T10:35:53.121Z,66.39
2016-11-13T10:40:53.061Z,66.49
2016-11-13T10:45:53.038Z,65.62
2016-11-13T10:50:52.642Z,66.39
2016-11-13T10:55:52.879Z,66
2016-11-13T11:00:52.829Z,66
2016-11-13T11:05:52.459Z,65.72
2016-11-13T11:10:52.707Z,65.14
2016-11-13T11:15:52.347Z,65.14
2016-11-13T11:20:52.286Z,65.14
2016-11-13T11:25:52.544Z,66.39
2016-11-13T11:30:52.481Z,66
2016-11-13T11:35:52.428Z,65.91
2016-11-13T11:40:52.366Z,66.39
2016-11-13T11:45:52.309Z,66.39
2016-11-13T11:50:51.944Z,66.39
2016-11-13T11:55:52.186Z,66.3
2016-11-13T12:00:52.145Z,66.1
2016-11-13T12:05:52.078Z,66.3
2016-11-13T12:10:52.020Z,66.49
2016-11-13T12:15:51.959Z,66.2
2016-11-13T12:20:51.591Z,66.39
2016-11-13T12:25:51.844Z,66.3
2016-11-13T12:30:51.783Z,66.39
2016-11-13T12:35:51.724Z,66.49
2016-11-13T12:40:51.670Z,66.58
2016-11-13T12:45:51.300Z,66.97
2016-11-13T12:50:51.558Z,66.77
2016-11-13T12:55:51.186Z,67.35
2016-11-13T13:00:51.440Z,67.16
2016-11-13T13:05:51.408Z,67.74
2016-11-13T13:10:51.018Z,67.16
2016-11-13T13:15:51.263Z,67.74
2016-11-13T13:20:50.894Z,67.64
2016-11-13T13:25:51.147Z,67.16
2016-11-13T13:30:51.083Z,67.54
2016-11-13T13:35:50.717Z,67.45
2016-11-13T13:40:50.959Z,67.35
2016-11-13T13:45:50.901Z,66.58
2016-11-13T13:50:50.843Z,67.45
2016-11-13T13:55:50.788Z,67.16
2016-11-13T14:00:50.720Z,66.58
2016-11-13T14:05:50.660Z,66.77
2016-11-13T14:10:50.597Z,67.35
2016-11-13T14:15:50.536Z,66.77
2016-11-13T14:20:50.481Z,66.77
2016-11-13T14:25:50.419Z,66.49
2016-11-13T14:30:50.363Z,66.77
2016-11-13T14:35:49.991Z,66.68
2016-11-13T14:40:50.262Z,66.87
2016-11-13T14:45:49.871Z,66.87
2016-11-13T14:50:50.109Z,66.87
2016-11-13T14:55:50.043Z,66.68
2016-11-13T15:00:49.983Z,66.87
2016-11-13T15:05:49.927Z,66.58
2016-11-13T15:10:49.861Z,66.97
2016-11-13T15:15:49.495Z,66.68
2016-11-13T15:20:49.739Z,66.97
2016-11-13T15:25:49.698Z,66.97
2016-11-13T15:30:49.313Z,66.97
2016-11-13T15:35:49.569Z,67.16
2016-11-13T15:40:49.503Z,67.25
2016-11-13T15:45:49.461Z,67.74
2016-11-13T15:50:49.076Z,67.54
2016-11-13T15:55:49.318Z,67.83
2016-11-13T16:00:48.954Z,67.45
2016-11-13T16:05:49.202Z,67.74
2016-11-13T16:10:49.138Z,67.35
2016-11-13T16:15:49.079Z,67.54
2016-11-13T16:20:49.037Z,67.35
2016-11-13T16:25:48.971Z,68.02
2016-11-13T16:30:48.623Z,68.12
2016-11-13T16:35:48.561Z,68.02
2016-11-13T16:40:48.812Z,68.41
2016-11-13T16:45:48.462Z,68.51
2016-11-13T16:50:48.711Z,68.79
2016-11-13T16:55:48.653Z,68.89
2016-11-13T17:00:48.291Z,68.7
2016-11-13T17:05:48.541Z,68.7
2016-11-13T17:10:48.484Z,69.08
2016-11-13T17:15:48.424Z,69.18
2016-11-13T17:20:48.058Z,68.7
2016-11-13T17:25:48.304Z,69.46
2016-11-13T17:30:48.254Z,68.98
2016-11-13T17:35:48.184Z,68.98
2016-11-13T17:40:48.129Z,69.08
2016-11-13T17:45:48.087Z,69.08
2016-11-13T17:50:48.017Z,69.08
2016-11-13T17:55:47.652Z,69.46
2016-11-13T18:00:47.601Z,69.27
2016-11-13T18:05:47.554Z,69.12
2016-11-13T18:10:47.802Z,68.73
2016-11-13T18:15:47.756Z,68.92
2016-11-13T18:20:47.698Z,68.19
2016-11-13T18:25:47.646Z,68.09
2016-11-13T18:30:47.591Z,67.74
2016-11-13T18:35:47.227Z,67.74
2016-11-13T18:40:47.499Z,67.26
2016-11-13T18:45:47.434Z,67.74
2016-11-13T18:50:47.383Z,66.68
2016-11-13T18:55:47.031Z,66.49
2016-11-13T19:00:46.975Z,67.26
2016-11-13T19:05:47.234Z,66.68
2016-11-13T19:10:46.865Z,67.07
2016-11-13T19:15:47.126Z,66.88
2016-11-13T19:20:47.091Z,67.26
2016-11-13T19:25:47.029Z,66.91
2016-11-13T19:30:46.973Z,67.58
2016-11-13T19:35:46.922Z,69.02
2016-11-13T19:40:46.880Z,68.41
2016-11-13T19:45:46.521Z,68.84
2016-11-13T19:50:46.776Z,68.06
2016-11-13T19:55:46.721Z,68.16
2016-11-13T20:00:46.672Z,68.06
2016-11-13T20:05:46.630Z,68.7
2016-11-13T20:10:46.567Z,68.16
2016-11-13T20:15:46.516Z,68.74
2016-11-13T20:20:46.476Z,68.8
2016-11-13T20:25:46.413Z,68.13
2016-11-13T20:30:46.366Z,68.41
2016-11-13T20:35:46.019Z,68.22
2016-11-13T20:40:46.262Z,67.93
2016-11-13T20:45:46.218Z,67.83
2016-11-13T20:50:46.162Z,68.03
2016-11-13T20:55:46.113Z,67.55
2016-11-13T21:00:46.065Z,68.32
2016-11-13T21:05:45.708Z,68.03
2016-11-13T21:10:45.958Z,67.55
2016-11-13T21:15:45.912Z,67.35
2016-11-13T21:20:45.846Z,67.45
2016-11-13T21:25:45.795Z,66.78
2016-11-13T21:30:45.748Z,66.88
2016-11-13T21:35:45.384Z,66.58
2016-11-13T21:40:45.641Z,66.97
2016-11-13T21:45:45.589Z,66.88
2016-11-13T21:50:45.532Z,66.78
2016-11-13T21:55:45.481Z,66.49
2016-11-13T22:00:45.433Z,66.39
2016-11-13T22:05:45.100Z,66.78
2016-11-13T22:10:45.043Z,66.78
2016-11-13T22:15:45.301Z,66.88
2016-11-13T22:20:45.226Z,66.78
2016-11-13T22:25:44.909Z,66.68
2016-11-13T22:30:45.186Z,66.94
2016-11-13T22:35:45.100Z,66.74
2016-11-13T22:40:44.734Z,65.5
2016-11-13T22:45:44.992Z,66.65
2016-11-13T22:50:44.940Z,66.36
2016-11-13T22:55:44.892Z,66.27
2016-11-13T23:00:44.841Z,66.23
2016-11-13T23:05:44.788Z,66.33
2016-11-13T23:10:44.725Z,66.42
2016-11-13T23:15:44.684Z,66.61
2016-11-13T23:20:44.310Z,66.3
2016-11-13T23:25:44.566Z,66.68
2016-11-13T23:30:44.206Z,66.2
2016-11-13T23:35:44.157Z,66.68
2016-11-13T23:40:44.097Z,66.77
2016-11-13T23:45:44.041Z,66.64
2016-11-13T23:50:44.295Z,66.74
2016-11-13T23:55:44.246Z,66.93
